createdAt,value
2022-12-28T00:02:23.484Z,49.55
2022-12-28T00:07:43.946Z,50.00
2022-12-28T00:10:10.373Z,49.78
2022-12-28T00:12:36.695Z,49.83
2022-12-28T00:15:03.046Z,49.79
2022-12-28T00:17:29.388Z,49.64
2022-12-28T00:22:39.623Z,49.72
2022-12-28T00:25:05.988Z,50.03
2022-12-28T00:27:32.381Z,49.69
2022-12-28T00:29:58.724Z,50.07
2022-12-28T00:32:25.135Z,49.88
2022-12-28T00:37:35.299Z,50.08
2022-12-28T00:40:01.684Z,49.74
2022-12-28T00:42:28.068Z,49.89
2022-12-28T00:44:54.414Z,49.85
2022-12-28T00:47:20.748Z,50.08
2022-12-28T00:52:41.099Z,49.83
2022-12-28T00:55:07.554Z,49.54
2022-12-28T00:57:33.871Z,49.99
2022-12-28T01:00:00.187Z,49.81
2022-12-28T01:02:26.610Z,49.90
2022-12-28T01:07:36.709Z,49.72
2022-12-28T01:10:03.067Z,49.80
2022-12-28T01:12:33.139Z,50.03
2022-12-28T01:15:02.610Z,49.84
2022-12-28T01:17:28.948Z,50.09
2022-12-28T01:22:48.912Z,50.45
2022-12-28T01:25:15.251Z,49.96
2022-12-28T01:27:41.556Z,50.01
2022-12-28T01:30:07.917Z,50.00
2022-12-28T01:32:34.275Z,49.89
2022-12-28T01:37:44.412Z,50.08
2022-12-28T01:40:10.738Z,49.82
2022-12-28T01:42:37.093Z,49.94
2022-12-28T01:45:03.418Z,49.63
2022-12-28T01:47:29.751Z,49.66
2022-12-28T01:49:56.058Z,49.83
2022-12-28T01:52:22.434Z,49.92
2022-12-28T01:54:48.745Z,50.02
2022-12-28T01:57:15.110Z,50.35
2022-12-28T01:59:41.435Z,49.69
2022-12-28T02:02:07.869Z,49.92
2022-12-28T02:04:34.443Z,49.80
2022-12-28T02:07:00.782Z,50.07
2022-12-28T02:09:29.896Z,50.05
2022-12-28T02:11:56.236Z,50.04
2022-12-28T02:14:22.596Z,49.94
2022-12-28T02:16:48.972Z,49.94
2022-12-28T02:19:15.351Z,49.61
2022-12-28T02:21:41.677Z,49.80
2022-12-28T02:24:10.783Z,49.83
2022-12-28T02:26:37.125Z,49.89
2022-12-28T02:29:03.525Z,49.47
2022-12-28T02:31:29.843Z,49.37
2022-12-28T02:33:56.180Z,49.76
2022-12-28T02:36:25.357Z,49.86
2022-12-28T02:38:51.688Z,50.00
2022-12-28T02:41:18.033Z,50.00
2022-12-28T02:43:44.360Z,49.34
2022-12-28T02:46:10.745Z,49.39
2022-12-28T02:48:37.097Z,49.86
2022-12-28T02:51:03.434Z,49.47
2022-12-28T02:56:23.756Z,49.34
2022-12-28T02:58:50.092Z,49.96
2022-12-28T03:01:16.479Z,51.03
2022-12-28T03:03:42.887Z,49.87
2022-12-28T03:06:09.211Z,50.12
2022-12-28T03:11:20.603Z,49.71
2022-12-28T03:13:46.929Z,49.86
2022-12-28T03:16:13.333Z,50.04
2022-12-28T03:18:39.726Z,49.70
2022-12-28T03:21:06.129Z,49.94
2022-12-28T03:26:16.580Z,49.77
2022-12-28T03:28:42.950Z,49.57
2022-12-28T03:31:09.478Z,49.90
2022-12-28T03:33:35.891Z,49.79
2022-12-28T03:36:02.203Z,49.56
2022-12-28T03:41:22.689Z,49.52
2022-12-28T03:43:49.042Z,49.67
2022-12-28T03:46:16.300Z,50.01
2022-12-28T03:48:42.654Z,50.10
2022-12-28T03:51:08.983Z,50.13
2022-12-28T03:56:29.239Z,49.56
2022-12-28T03:58:55.570Z,49.49
2022-12-28T04:01:21.966Z,49.67
2022-12-28T04:03:48.364Z,49.22
2022-12-28T04:06:15.572Z,49.39
2022-12-28T04:11:25.968Z,49.70
2022-12-28T04:13:52.407Z,49.65
2022-12-28T04:16:18.806Z,49.77
2022-12-28T04:18:45.207Z,49.89
2022-12-28T04:21:12.539Z,50.25
2022-12-28T04:26:22.841Z,50.07
2022-12-28T04:28:49.162Z,49.95
2022-12-28T04:31:15.583Z,49.57
2022-12-28T04:33:41.966Z,49.66
2022-12-28T04:36:08.305Z,49.40
2022-12-28T04:41:28.482Z,49.79
2022-12-28T04:43:54.904Z,49.47
2022-12-28T04:46:21.319Z,50.09
2022-12-28T04:48:47.720Z,49.50
2022-12-28T04:51:14.925Z,49.41
2022-12-28T04:56:25.233Z,49.40
2022-12-28T04:58:51.589Z,49.70
2022-12-28T05:01:18.942Z,49.79
2022-12-28T05:03:51.058Z,49.70
2022-12-28T05:06:21.279Z,49.65
2022-12-28T05:11:31.483Z,49.47
2022-12-28T05:13:57.807Z,49.36
2022-12-28T05:16:24.294Z,49.37
2022-12-28T05:18:50.657Z,49.19
2022-12-28T05:21:17.880Z,49.22
2022-12-28T05:26:38.111Z,49.03
2022-12-28T05:29:04.467Z,49.06
2022-12-28T05:31:30.830Z,48.76
2022-12-28T05:33:57.248Z,49.32
2022-12-28T05:36:23.592Z,49.31
2022-12-28T05:41:33.936Z,48.99
2022-12-28T05:44:00.277Z,49.16
2022-12-28T05:46:26.706Z,49.49
2022-12-28T05:48:53.099Z,49.15
2022-12-28T05:51:20.315Z,48.84
2022-12-28T05:53:46.705Z,48.79
2022-12-28T05:56:14.610Z,48.79
2022-12-28T05:58:41.347Z,48.82
2022-12-28T06:01:07.707Z,49.13
2022-12-28T06:03:34.202Z,48.55
2022-12-28T06:06:00.623Z,48.46
2022-12-28T06:08:26.954Z,48.70
2022-12-28T06:10:53.315Z,48.57
2022-12-28T06:13:20.520Z,49.37
2022-12-28T06:15:46.902Z,48.96
2022-12-28T06:18:14.116Z,48.86
2022-12-28T06:20:40.462Z,49.32
2022-12-28T06:23:06.816Z,49.27
2022-12-28T06:25:34.029Z,49.36
2022-12-28T06:28:00.403Z,49.30
2022-12-28T06:30:26.725Z,48.63
2022-12-28T06:32:53.084Z,48.97
2022-12-28T06:35:19.430Z,48.97
2022-12-28T06:37:45.758Z,48.54
2022-12-28T06:40:12.254Z,48.66
2022-12-28T06:42:39.697Z,48.60
2022-12-28T06:45:06.264Z,48.14
2022-12-28T06:47:32.741Z,48.78
2022-12-28T06:49:59.204Z,48.57
2022-12-28T06:52:25.691Z,48.48
2022-12-28T06:54:52.163Z,48.99
2022-12-28T06:57:18.712Z,48.69
2022-12-28T06:59:45.184Z,48.66
2022-12-28T07:02:11.871Z,48.48
2022-12-28T07:04:38.788Z,48.36
2022-12-28T07:07:05.466Z,48.35
2022-12-28T07:09:32.837Z,48.71
2022-12-28T07:14:45.422Z,48.12
2022-12-28T07:17:11.879Z,47.86
2022-12-28T07:19:39.324Z,48.68
2022-12-28T07:22:06.971Z,48.32
2022-12-28T07:24:34.557Z,48.03
2022-12-28T07:29:46.134Z,48.24
2022-12-28T07:32:13.403Z,47.94
2022-12-28T07:34:43.344Z,48.01
2022-12-28T07:37:12.545Z,48.43
2022-12-28T07:39:40.907Z,48.19
2022-12-28T07:44:52.453Z,47.85
2022-12-28T07:47:21.616Z,48.37
2022-12-28T07:49:49.840Z,48.08
2022-12-28T07:52:16.294Z,47.63
2022-12-28T07:54:42.711Z,48.41
2022-12-28T08:00:03.048Z,47.93
2022-12-28T08:02:30.501Z,47.81
2022-12-28T08:04:56.978Z,48.30
2022-12-28T08:07:23.419Z,47.56
2022-12-28T08:09:49.833Z,47.83
2022-12-28T08:15:11.363Z,48.35
2022-12-28T08:17:37.823Z,48.20
2022-12-28T08:20:04.297Z,48.11
2022-12-28T08:22:30.805Z,48.65
2022-12-28T08:24:58.208Z,48.26
2022-12-28T08:30:19.782Z,48.21
2022-12-28T08:32:47.284Z,48.07
2022-12-28T08:35:14.674Z,48.83
2022-12-28T08:37:41.163Z,48.48
2022-12-28T08:40:07.666Z,48.29
2022-12-28T08:45:19.826Z,48.71
2022-12-28T08:47:46.299Z,48.55
2022-12-28T08:50:18.096Z,48.63
2022-12-28T08:52:46.331Z,48.46
2022-12-28T08:55:12.813Z,48.47
2022-12-28T08:57:39.273Z,48.92
2022-12-28T09:00:05.734Z,48.65
2022-12-28T09:02:33.272Z,48.47
2022-12-28T09:04:59.887Z,48.30
2022-12-28T09:07:26.344Z,48.14
2022-12-28T09:09:53.855Z,48.23
2022-12-28T09:15:15.057Z,47.63
2022-12-28T09:17:41.530Z,47.44
2022-12-28T09:20:08.026Z,47.01
2022-12-28T09:22:34.549Z,47.63
2022-12-28T09:25:00.990Z,47.01
2022-12-28T09:30:13.443Z,47.45
2022-12-28T09:32:40.810Z,46.81
2022-12-28T09:35:07.277Z,46.52
2022-12-28T09:37:34.630Z,46.26
2022-12-28T09:40:02.124Z,46.12
2022-12-28T09:45:13.578Z,47.05
2022-12-28T09:47:40.911Z,46.31
2022-12-28T09:50:08.303Z,46.28
2022-12-28T09:52:35.630Z,46.58
2022-12-28T09:55:03.015Z,46.16
2022-12-28T09:57:30.414Z,45.69
2022-12-28T09:59:57.713Z,46.88
2022-12-28T10:02:25.168Z,45.75
2022-12-28T10:04:52.643Z,45.83
2022-12-28T10:07:19.887Z,46.04
2022-12-28T10:09:48.222Z,45.98
2022-12-28T10:12:15.498Z,45.48
2022-12-28T10:14:42.006Z,45.87
2022-12-28T10:17:08.471Z,45.62
2022-12-28T10:19:34.926Z,45.53
2022-12-28T10:22:01.369Z,45.14
2022-12-28T10:24:32.093Z,45.36
2022-12-28T10:26:59.284Z,45.01
2022-12-28T10:29:26.596Z,45.21
2022-12-28T10:31:53.006Z,45.27
2022-12-28T10:34:19.527Z,45.21
2022-12-28T10:36:46.776Z,45.10
2022-12-28T10:39:13.198Z,45.08
2022-12-28T10:41:43.445Z,45.01
2022-12-28T10:44:38.435Z,45.28
2022-12-28T10:46:59.858Z,44.72
2022-12-28T10:49:26.298Z,44.77
2022-12-28T10:51:52.732Z,44.73
2022-12-28T10:54:27.755Z,44.80
2022-12-28T10:56:56.916Z,44.92
2022-12-28T10:59:23.403Z,44.72
2022-12-28T11:01:50.833Z,45.27
2022-12-28T11:04:17.506Z,44.66
2022-12-28T11:06:43.970Z,44.77
2022-12-28T11:09:11.279Z,45.11
2022-12-28T11:11:37.674Z,44.98
2022-12-28T11:14:04.975Z,44.85
2022-12-28T11:16:31.539Z,44.92
2022-12-28T11:19:00.718Z,44.88
2022-12-28T11:21:27.187Z,44.38
2022-12-28T11:23:53.537Z,44.47
2022-12-28T11:26:19.956Z,44.73
2022-12-28T11:28:47.247Z,44.84
2022-12-28T11:33:58.029Z,44.54
2022-12-28T11:36:24.450Z,44.84
2022-12-28T11:38:50.920Z,45.01
2022-12-28T11:41:18.134Z,45.22
2022-12-28T11:43:44.543Z,45.07
2022-12-28T11:49:06.105Z,44.52
2022-12-28T11:51:32.703Z,44.38
2022-12-28T11:53:59.130Z,44.00
2022-12-28T11:56:25.533Z,43.86
2022-12-28T11:58:51.958Z,43.95
2022-12-28T12:04:03.159Z,44.61
2022-12-28T12:06:34.123Z,45.01
2022-12-28T12:09:04.765Z,45.43
2022-12-28T12:11:31.170Z,46.03
2022-12-28T12:13:57.594Z,46.53
2022-12-28T12:19:07.582Z,47.37
2022-12-28T12:21:33.916Z,47.43
2022-12-28T12:24:00.277Z,47.53
2022-12-28T12:26:26.640Z,47.71
2022-12-28T12:28:53.875Z,47.69
2022-12-28T12:34:04.167Z,48.35
2022-12-28T12:36:30.495Z,48.51
2022-12-28T12:38:56.834Z,48.57
2022-12-28T12:41:23.193Z,49.23
2022-12-28T12:43:49.527Z,49.17
2022-12-28T12:49:09.879Z,48.91
2022-12-28T12:51:36.227Z,49.07
2022-12-28T12:54:02.575Z,49.72
2022-12-28T12:56:29.083Z,49.52
2022-12-28T12:58:55.417Z,49.61
2022-12-28T13:04:05.866Z,50.21
2022-12-28T13:06:32.180Z,49.85
2022-12-28T13:09:04.811Z,50.44
2022-12-28T13:11:31.909Z,50.23
2022-12-28T13:13:58.285Z,50.32
2022-12-28T13:19:18.688Z,50.17
2022-12-28T13:21:45.047Z,50.28
2022-12-28T13:24:11.384Z,50.48
2022-12-28T13:26:37.745Z,50.59
2022-12-28T13:29:04.138Z,50.47
2022-12-28T13:34:24.388Z,50.61
2022-12-28T13:36:50.750Z,50.01
2022-12-28T13:39:17.953Z,50.01
2022-12-28T13:41:44.333Z,50.29
2022-12-28T13:44:11.548Z,49.78
2022-12-28T13:49:22.522Z,50.43
2022-12-28T13:51:53.311Z,49.67
2022-12-28T13:54:21.062Z,49.90
2022-12-28T13:56:47.432Z,50.24
2022-12-28T13:59:14.674Z,49.76
2022-12-28T14:04:54.934Z,49.41
2022-12-28T14:07:12.105Z,49.27
2022-12-28T14:09:39.390Z,49.09
2022-12-28T14:12:06.627Z,49.38
2022-12-28T14:14:33.009Z,49.36
2022-12-28T14:19:44.878Z,49.03
2022-12-28T14:22:14.151Z,49.00
2022-12-28T14:24:40.646Z,49.75
2022-12-28T14:27:07.024Z,48.75
2022-12-28T14:29:34.248Z,49.99
2022-12-28T14:34:55.935Z,50.09
2022-12-28T14:37:22.527Z,49.93
2022-12-28T14:39:48.855Z,50.13
2022-12-28T14:42:16.267Z,49.92
2022-12-28T14:44:43.992Z,50.17
2022-12-28T14:50:04.171Z,50.32
2022-12-28T14:52:30.496Z,50.54
2022-12-28T14:54:56.841Z,50.19
2022-12-28T14:57:23.247Z,50.50
2022-12-28T14:59:49.752Z,50.62
2022-12-28T15:05:01.060Z,50.49
2022-12-28T15:07:29.756Z,50.73
2022-12-28T15:09:57.048Z,51.00
2022-12-28T15:12:24.319Z,50.48
2022-12-28T15:14:51.616Z,50.39
2022-12-28T15:17:18.095Z,50.55
2022-12-28T15:19:44.557Z,50.51
2022-12-28T15:22:10.977Z,50.85
2022-12-28T15:24:39.287Z,51.47
2022-12-28T15:27:05.760Z,51.65
2022-12-28T15:30:04.536Z,51.27
2022-12-28T15:32:20.441Z,50.86
2022-12-28T15:34:47.027Z,51.28
2022-12-28T15:37:13.465Z,51.41
2022-12-28T15:39:39.895Z,50.65
2022-12-28T15:42:06.306Z,50.25
2022-12-28T15:44:32.753Z,50.23
2022-12-28T15:47:01.483Z,50.06
2022-12-28T15:49:28.208Z,50.05
2022-12-28T15:51:54.661Z,50.14
2022-12-28T15:54:21.917Z,50.36
2022-12-28T15:56:49.183Z,50.85
2022-12-28T15:59:15.534Z,50.67
2022-12-28T16:01:42.876Z,50.89
2022-12-28T16:04:09.349Z,50.73
2022-12-28T16:06:41.838Z,50.90
2022-12-28T16:09:10.608Z,50.87
2022-12-28T16:11:36.950Z,51.04
2022-12-28T16:14:03.329Z,51.17
2022-12-28T16:16:29.819Z,50.82
2022-12-28T16:18:57.148Z,50.76
2022-12-28T16:21:23.541Z,51.44
2022-12-28T16:23:49.915Z,50.74
2022-12-28T16:26:16.459Z,50.45
2022-12-28T16:28:42.808Z,50.88
2022-12-28T16:31:10.122Z,50.71
2022-12-28T16:33:36.486Z,50.38
2022-12-28T16:38:47.186Z,50.73
2022-12-28T16:41:13.528Z,50.62
2022-12-28T16:43:39.888Z,50.53
2022-12-28T16:46:06.457Z,50.89
2022-12-28T16:48:32.863Z,50.87
2022-12-28T16:53:42.996Z,50.78
2022-12-28T16:56:10.202Z,51.05
2022-12-28T16:58:36.626Z,50.72
2022-12-28T17:01:03.043Z,50.37
2022-12-28T17:03:29.605Z,50.63
2022-12-28T17:08:49.678Z,50.60
2022-12-28T17:11:16.026Z,50.39
2022-12-28T17:13:42.439Z,50.40
2022-12-28T17:16:08.982Z,50.66
2022-12-28T17:18:35.411Z,50.02
2022-12-28T17:23:48.633Z,50.08
2022-12-28T17:26:15.870Z,50.05
2022-12-28T17:28:42.665Z,49.95
2022-12-28T17:31:09.060Z,50.25
2022-12-28T17:33:39.322Z,50.32
2022-12-28T17:39:00.523Z,48.59
2022-12-28T17:41:28.195Z,48.58
2022-12-28T17:43:54.679Z,47.21
2022-12-28T17:46:21.978Z,47.74
2022-12-28T17:48:48.466Z,46.70
2022-12-28T17:53:59.746Z,46.44
2022-12-28T17:56:26.170Z,46.45
2022-12-28T17:58:52.621Z,46.06
2022-12-28T18:01:19.187Z,45.91
2022-12-28T18:03:46.599Z,45.87
2022-12-28T18:08:57.246Z,45.77
2022-12-28T18:11:25.557Z,45.67
2022-12-28T18:13:53.825Z,45.57
2022-12-28T18:16:20.282Z,45.50
2022-12-28T18:18:46.769Z,45.64
2022-12-28T18:24:08.379Z,45.56
2022-12-28T18:26:35.778Z,45.22
2022-12-28T18:29:04.987Z,45.30
2022-12-28T18:31:31.374Z,45.03
2022-12-28T18:33:57.831Z,45.36
2022-12-28T18:39:08.400Z,46.22
2022-12-28T18:41:34.740Z,45.04
2022-12-28T18:44:02.296Z,45.45
2022-12-28T18:46:28.667Z,45.15
2022-12-28T18:48:55.107Z,44.93
2022-12-28T18:54:15.730Z,45.15
2022-12-28T18:56:43.394Z,44.75
2022-12-28T18:59:09.899Z,44.71
2022-12-28T19:04:22.967Z,45.02
2022-12-28T19:09:43.348Z,44.72
2022-12-28T19:12:10.629Z,44.76
2022-12-28T19:14:39.102Z,44.73
2022-12-28T19:17:07.563Z,44.54
2022-12-28T19:19:35.887Z,44.57
2022-12-28T19:24:50.739Z,44.46
2022-12-28T19:27:17.151Z,44.62
2022-12-28T19:29:44.407Z,45.11
2022-12-28T19:32:10.852Z,44.29
2022-12-28T19:34:38.308Z,44.26
2022-12-28T19:39:53.396Z,44.41
2022-12-28T19:42:24.607Z,44.28
2022-12-28T19:44:51.411Z,44.80
2022-12-28T19:47:18.684Z,44.46
2022-12-28T19:49:47.020Z,44.85
2022-12-28T19:55:12.426Z,44.86
2022-12-28T19:57:39.837Z,44.12
2022-12-28T20:00:07.203Z,44.76
2022-12-28T20:02:33.745Z,44.39
2022-12-28T20:05:02.139Z,44.56
2022-12-28T20:10:22.632Z,44.32
2022-12-28T20:12:50.912Z,44.43
2022-12-28T20:15:17.365Z,44.44
2022-12-28T20:17:46.629Z,44.62
2022-12-28T20:20:17.275Z,44.42
2022-12-28T20:25:28.614Z,44.30
2022-12-28T20:27:55.080Z,44.40
2022-12-28T20:30:21.661Z,44.40
2022-12-28T20:32:48.098Z,44.48
2022-12-28T20:35:14.572Z,44.57
2022-12-28T20:40:39.783Z,44.57
2022-12-28T20:43:07.214Z,44.73
2022-12-28T20:45:33.667Z,44.18
2022-12-28T20:48:00.329Z,44.52
2022-12-28T20:50:26.856Z,44.19
2022-12-28T20:52:55.160Z,44.68
2022-12-28T20:55:21.689Z,44.41
2022-12-28T20:57:49.105Z,44.79
2022-12-28T21:00:15.759Z,44.53
2022-12-28T21:02:43.005Z,44.28
2022-12-28T21:05:12.961Z,44.60
2022-12-28T21:07:41.330Z,44.44
2022-12-28T21:10:07.766Z,44.27
2022-12-28T21:12:34.405Z,44.07
2022-12-28T21:15:01.651Z,44.54
2022-12-28T21:17:28.124Z,44.34
2022-12-28T21:19:55.398Z,44.93
2022-12-28T21:22:22.741Z,45.12
2022-12-28T21:24:51.925Z,45.62
2022-12-28T21:27:18.406Z,45.17
2022-12-28T21:29:44.800Z,44.79
2022-12-28T21:32:11.283Z,45.05
2022-12-28T21:34:37.783Z,45.46
2022-12-28T21:37:04.148Z,45.84
2022-12-28T21:39:30.536Z,45.55
2022-12-28T21:41:56.919Z,45.65
2022-12-28T21:44:23.338Z,45.61
2022-12-28T21:46:49.715Z,45.73
2022-12-28T21:49:16.110Z,45.73
2022-12-28T21:51:42.482Z,46.05
2022-12-28T21:54:08.843Z,46.05
2022-12-28T21:56:35.229Z,46.61
2022-12-28T21:59:01.577Z,46.33
2022-12-28T22:01:28.061Z,46.38
2022-12-28T22:03:54.452Z,46.31
2022-12-28T22:06:20.833Z,47.03
2022-12-28T22:08:47.229Z,46.64
2022-12-28T22:14:08.196Z,47.37
2022-12-28T22:16:34.757Z,46.76
2022-12-28T22:19:02.998Z,47.19
2022-12-28T22:21:29.798Z,46.81
2022-12-28T22:23:56.116Z,46.91
2022-12-28T22:29:06.203Z,46.92
2022-12-28T22:31:32.629Z,47.26
2022-12-28T22:34:04.941Z,46.94
2022-12-28T22:36:33.058Z,47.39
2022-12-28T22:38:59.405Z,47.16
2022-12-28T22:44:19.479Z,46.96
2022-12-28T22:46:45.878Z,47.62
2022-12-28T22:49:12.234Z,47.27
2022-12-28T22:51:38.619Z,47.17
2022-12-28T22:54:04.985Z,47.09
2022-12-28T22:59:15.798Z,47.42
2022-12-28T23:01:42.419Z,47.51
2022-12-28T23:04:08.889Z,47.46
2022-12-28T23:06:35.250Z,47.22
2022-12-28T23:09:01.635Z,47.56
2022-12-28T23:14:12.052Z,47.82
2022-12-28T23:16:38.439Z,47.58
2022-12-28T23:19:04.913Z,47.57
2022-12-28T23:21:31.286Z,47.74
2022-12-28T23:23:57.638Z,47.67
2022-12-28T23:29:17.994Z,47.81
2022-12-28T23:31:44.371Z,47.81
2022-12-28T23:34:10.727Z,48.04
2022-12-28T23:36:37.137Z,48.24
2022-12-28T23:39:03.509Z,47.88
2022-12-28T23:44:14.725Z,47.79
2022-12-28T23:46:41.097Z,48.03
2022-12-28T23:49:07.508Z,47.74
2022-12-28T23:51:36.681Z,48.16
2022-12-28T23:54:03.031Z,47.71
2022-12-28T23:59:13.187Z,48.11
